Map

Track Data

SID SEASON NUMBER BASIN SUBBASIN NAME ISO_TIME NATURE LAT LON WMO_WIND WMO_PRES WMO_AGENCY TRACK_TYPE DIST2LAND LANDFALL IFLAG USA_AGENCY USA_ATCF_ID USA_LAT USA_LON USA_RECORD USA_STATUS USA_WIND USA_PRES USA_SSHS USA_R34_NE USA_R34_SE USA_R34_SW USA_R34_NW USA_R50_NE USA_R50_SE USA_R50_SW USA_R50_NW USA_R64_NE USA_R64_SE USA_R64_SW USA_R64_NW USA_POCI USA_ROCI USA_RMW USA_EYE TOKYO_LAT TOKYO_LON TOKYO_GRADE TOKYO_WIND TOKYO_PRES TOKYO_R50_DIR TOKYO_R50_LONG TOKYO_R50_SHORT TOKYO_R30_DIR TOKYO_R30_LONG TOKYO_R30_SHORT TOKYO_LAND CMA_LAT CMA_LON CMA_CAT CMA_WIND CMA_PRES HKO_LAT HKO_LON HKO_CAT HKO_WIND HKO_PRES NEWDELHI_LAT NEWDELHI_LON NEWDELHI_GRADE NEWDELHI_WIND NEWDELHI_PRES NEWDELHI_CI NEWDELHI_DP NEWDELHI_POCI REUNION_LAT REUNION_LON REUNION_TYPE REUNION_WIND REUNION_PRES REUNION_TNUM REUNION_CI REUNION_RMW REUNION_R34_NE REUNION_R34_SE REUNION_R34_SW REUNION_R34_NW REUNION_R50_NE REUNION_R50_SE REUNION_R50_SW REUNION_R50_NW REUNION_R64_NE REUNION_R64_SE REUNION_R64_SW REUNION_R64_NW BOM_LAT BOM_LON BOM_TYPE BOM_WIND BOM_PRES BOM_TNUM BOM_CI BOM_RMW BOM_R34_NE BOM_R34_SE BOM_R34_SW BOM_R34_NW BOM_R50_NE BOM_R50_SE BOM_R50_SW BOM_R50_NW BOM_R64_NE BOM_R64_SE BOM_R64_SW BOM_R64_NW BOM_ROCI BOM_POCI BOM_EYE BOM_POS_METHOD BOM_PRES_METHOD NADI_LAT NADI_LON NADI_CAT NADI_WIND NADI_PRES WELLINGTON_LAT WELLINGTON_LON WELLINGTON_WIND WELLINGTON_PRES DS824_LAT DS824_LON DS824_STAGE DS824_WIND DS824_PRES TD9636_LAT TD9636_LON TD9636_STAGE TD9636_WIND TD9636_PRES TD9635_LAT TD9635_LON TD9635_WIND TD9635_PRES TD9635_ROCI NEUMANN_LAT NEUMANN_LON NEUMANN_CLASS NEUMANN_WIND NEUMANN_PRES MLC_LAT MLC_LON MLC_CLASS MLC_WIND MLC_PRES USA_GUST BOM_GUST BOM_GUST_PER REUNION_GUST REUNION_GUST_PER USA_SEAHGT USA_SEARAD_NE USA_SEARAD_SE USA_SEARAD_SW USA_SEARAD_NW STORM_SPEED STORM_DIR
1887341N13302 1887 77 NA NA NOT_NAMED 1887-12-07 06:00:00 TS 12.5000 -58.5000 35 hurdat_atl main 338 304 O_____________ hurdat_atl AL191887 12.5000 -58.5000 TS 35 0 11 280
1887341N13302 1887 77 NA NA NOT_NAMED 1887-12-07 09:00:00 TS 12.6003 -59.0599 main 296 270 P_____________ AL191887 12.6003 -59.0599 TS 35 0 11 281
1887341N13302 1887 77 NA CS NOT_NAMED 1887-12-07 12:00:00 TS 12.7000 -59.6000 35 hurdat_atl main 270 254 O_____________ hurdat_atl AL191887 12.7000 -59.6000 TS 35 0 10 281
1887341N13302 1887 77 NA CS NOT_NAMED 1887-12-07 15:00:00 TS 12.7999 -60.1075 main 254 244 P_____________ AL191887 12.7999 -60.1075 TS 37 0 10 282
1887341N13302 1887 77 NA CS NOT_NAMED 1887-12-07 18:00:00 TS 12.9000 -60.6000 40 hurdat_atl main 250 247 O_____________ hurdat_atl AL191887 12.9000 -60.6000 TS 40 0 10 282
1887341N13302 1887 77 NA CS NOT_NAMED 1887-12-07 21:00:00 TS 13.0074 -61.1000 main 257 257 P_____________ AL191887 13.0074 -61.1000 TS 40 0 10 282
1887341N13302 1887 77 NA CS NOT_NAMED 1887-12-08 00:00:00 TS 13.1000 -61.6000 40 hurdat_atl main 268 268 O_____________ hurdat_atl AL191887 13.1000 -61.6000 TS 40 0 10 279
1887341N13302 1887 77 NA CS NOT_NAMED 1887-12-08 03:00:00 TS 13.1574 -62.1001 main 280 279 P_____________ AL191887 13.1574 -62.1001 TS 40 0 10 276
1887341N13302 1887 77 NA CS NOT_NAMED 1887-12-08 06:00:00 TS 13.2000 -62.6000 40 hurdat_atl main 279 279 O_____________ hurdat_atl AL191887 13.2000 -62.6000 TS 40 0 10 276
1887341N13302 1887 77 NA CS NOT_NAMED 1887-12-08 09:00:00 TS 13.2574 -63.1000 main 291 291 P_____________ AL191887 13.2574 -63.1000 TS 42 0 10 276
1887341N13302 1887 77 NA CS NOT_NAMED 1887-12-08 12:00:00 TS 13.3000 -63.6000 45 hurdat_atl main 296 296 O_____________ hurdat_atl AL191887 13.3000 -63.6000 TS 45 0 10 273
1887341N13302 1887 77 NA CS NOT_NAMED 1887-12-08 15:00:00 TS 13.3074 -64.0925 main 302 302 P_____________ AL191887 13.3074 -64.0925 TS 45 0 10 270
1887341N13302 1887 77 NA CS NOT_NAMED 1887-12-08 18:00:00 TS 13.3000 -64.6000 45 hurdat_atl main 305 305 O_____________ hurdat_atl AL191887 13.3000 -64.6000 TS 45 0 10 270
1887341N13302 1887 77 NA CS NOT_NAMED 1887-12-08 21:00:00 TS 13.3074 -65.1424 main 317 304 P_____________ AL191887 13.3074 -65.1424 TS 45 0 11 270
1887341N13302 1887 77 NA CS NOT_NAMED 1887-12-09 00:00:00 TS 13.3000 -65.7000 45 hurdat_atl main 304 302 O_____________ hurdat_atl AL191887 13.3000 -65.7000 TS 45 0 11 268
1887341N13302 1887 77 NA CS NOT_NAMED 1887-12-09 03:00:00 TS 13.2648 -66.2425 main 302 283 P_____________ AL191887 13.2648 -66.2425 TS 47 0 11 265
1887341N13302 1887 77 NA CS NOT_NAMED 1887-12-09 06:00:00 TS 13.2000 -66.8000 50 hurdat_atl main 283 244 O_____________ hurdat_atl AL191887 13.2000 -66.8000 TS 50 0 11 262
1887341N13302 1887 77 NA CS NOT_NAMED 1887-12-09 09:00:00 TS 13.1072 -67.3700 main 238 199 P_____________ AL191887 13.1072 -67.3700 TS 50 0 12 260
1887341N13302 1887 77 NA CS NOT_NAMED 1887-12-09 12:00:00 TS 13.0000 -68.0000 50 hurdat_atl main 199 156 O_____________ hurdat_atl AL191887 13.0000 -68.0000 TS 50 0 13 261
1887341N13302 1887 77 NA CS NOT_NAMED 1887-12-09 15:00:00 TS 12.8998 -68.7050 main 156 89 P_____________ AL191887 12.8998 -68.7050 TS 50 0 15 262
1887341N13302 1887 77 NA CS NOT_NAMED 1887-12-09 18:00:00 TS 12.8000 -69.5000 50 hurdat_atl main 89 67 O_____________ hurdat_atl AL191887 12.8000 -69.5000 TS 50 0 16 263
1887341N13302 1887 77 NA CS NOT_NAMED 1887-12-09 21:00:00 TS 12.7073 -70.3699 main 70 35 P_____________ AL191887 12.7073 -70.3699 TS 50 0 18 264
1887341N13302 1887 77 NA CS NOT_NAMED 1887-12-10 00:00:00 TS 12.6000 -71.3000 50 hurdat_atl main 31 11 O_____________ hurdat_atl AL191887 12.6000 -71.3000 TS 50 0 19 262
1887341N13302 1887 77 NA CS NOT_NAMED 1887-12-10 03:00:00 TS 12.4498 -72.2501 main 24 24 P_____________ AL191887 12.4498 -72.2501 TS 50 0 19 261
1887341N13302 1887 77 NA CS NOT_NAMED 1887-12-10 06:00:00 TS 12.3000 -73.2000 50 hurdat_atl main 80 80 O_____________ hurdat_atl AL191887 12.3000 -73.2000 TS 50 0 18 262
1887341N13302 1887 77 NA CS NOT_NAMED 1887-12-10 09:00:00 TS 12.1998 -74.1223 main 111 109 P_____________ AL191887 12.1998 -74.1223 TS 50 0 18 264
1887341N13302 1887 77 NA CS NOT_NAMED 1887-12-10 12:00:00 TS 12.1000 -75.0000 50 hurdat_atl main 123 120 O_____________ hurdat_atl AL191887 12.1000 -75.0000 TS 50 0 17 262
1887341N13302 1887 77 NA CS NOT_NAMED 1887-12-10 15:00:00 TS 11.9571 -75.8149 main 145 139 P_____________ AL191887 11.9571 -75.8149 TS 50 0 16 259
1887341N13302 1887 77 NA CS NOT_NAMED 1887-12-10 18:00:00 TS 11.8000 -76.6000 50 hurdat_atl main 180 180 O_____________ hurdat_atl AL191887 11.8000 -76.6000 TS 50 0 16 259
1887341N13302 1887 77 NA CS NOT_NAMED 1887-12-10 21:00:00 TS 11.6424 -77.4150 main 235 235 P_____________ AL191887 11.6424 -77.4150 TS 50 0 16 259
1887341N13302 1887 77 NA CS NOT_NAMED 1887-12-11 00:00:00 TS 11.5000 -78.2000 50 hurdat_atl main 244 213 O_____________ hurdat_atl AL191887 11.5000 -78.2000 TS 50 0 15 261
1887341N13302 1887 77 NA CS NOT_NAMED 1887-12-11 03:00:00 TS 11.3997 -78.9148 main 213 201 P_____________ AL191887 11.3997 -78.9148 TS 50 0 14 262
1887341N13302 1887 77 NA CS NOT_NAMED 1887-12-11 06:00:00 TS 11.3000 -79.6000 50 hurdat_atl main 201 191 O_____________ hurdat_atl AL191887 11.3000 -79.6000 TS 50 0 15 260
1887341N13302 1887 77 NA CS NOT_NAMED 1887-12-11 09:00:00 TS 11.1427 -80.3676 main 194 194 P_____________ AL191887 11.1427 -80.3676 TS 50 0 14 258
1887341N13302 1887 77 NA CS NOT_NAMED 1887-12-11 12:00:00 TS 11.0000 -81.0000 50 hurdat_atl main 219 203 O_____________ hurdat_atl AL191887 11.0000 -81.0000 TS 50 0 10 257
1887341N13302 1887 77 NA CS NOT_NAMED 1887-12-11 15:00:00 TS 10.9347 -81.3174 main 203 188 P_____________ AL191887 10.9347 -81.3174 TS 47 0 5 258
1887341N13302 1887 77 NA CS NOT_NAMED 1887-12-11 18:00:00 TS 10.9000 -81.5000 45 hurdat_atl main 188 174 O_____________ hurdat_atl AL191887 10.9000 -81.5000 TS 45 0 4 259
1887341N13302 1887 77 NA CS NOT_NAMED 1887-12-11 21:00:00 TS 10.8500 -81.7500 main 166 141 P_____________ AL191887 10.8500 -81.7500 TS 45 0 5 258
1887341N13302 1887 77 NA CS NOT_NAMED 1887-12-12 00:00:00 TS 10.8000 -82.0000 45 hurdat_atl main 141 125 O_____________ hurdat_atl AL191887 10.8000 -82.0000 TS 45 0 5 258
1887341N13302 1887 77 NA CS NOT_NAMED 1887-12-12 03:00:00 TS 10.7500 -82.2425 main 117 95 P_____________ AL191887 10.7500 -82.2425 TS 42 0 5 258
1887341N13302 1887 77 NA CS NOT_NAMED 1887-12-12 06:00:00 TS 10.7000 -82.5000 40 hurdat_atl main 95 73 O_____________ hurdat_atl AL191887 10.7000 -82.5000 TS 40 0 6 260
1887341N13302 1887 77 NA CS NOT_NAMED 1887-12-12 09:00:00 TS 10.6500 -82.8000 main 73 39 P_____________ AL191887 10.6500 -82.8000 TS 37 0 6 260
1887341N13302 1887 77 NA CS NOT_NAMED 1887-12-12 12:00:00 TS 10.6000 -83.1000 35 hurdat_atl main 39 24 O_____________ hurdat_atl AL191887 10.6000 -83.1000 TS 35 0 6 260
1887341N13302 1887 77 NA CS NOT_NAMED 1887-12-12 15:00:00 TS 10.5500 -83.3625 main 15 0 P_____________ AL191887 10.5500 -83.3625 TS 30 -1 5 258
1887341N13302 1887 77 NA NA NOT_NAMED 1887-12-12 18:00:00 TS 10.5000 -83.6000 25 hurdat_atl main 0 O_____________ hurdat_atl AL191887 10.5000 -83.6000 TD 25 -1 5 258

About IBTrACS Database

This database is a web-friendly format of International Best Track Archive for Climate Stewardship (IBTrACS), a global best track data archive curated by NOAA dating back to 1842.

Updated: 2021-12-03